KFFX

Fremont Municipal Airport

Fremont, Michigan, USA
METAR KFFX 230158Z AUTO 00000KT 10SM SCT080 OVC090 06/04 A2998 RMK AO2 T00600042
Observed Flight Rules
Oct-23 @ 01:58 UTC (3 minutes ago) Visual Flight Rules
Visibility Clouds
10 miles
  • Scattered at 8,000' AGL
  • Overcast at 9,000' AGL
Temperatures Readings
Current 6°C / 43°F
Dewpoint 4°C / 39°F
Humidity 87%
Altimeter 29.98" Hg
Pressure 1015 hPa
Elevation 236
METAR KFFX 230158Z AUTO 00000KT 10SM SCT080 OVC090 06/04 A2998 RMK AO2 T00600042
Observed Flight Rules
Oct-23 @ 01:58 UTC
(3 minutes ago)
VFR
Clouds
  • Scattered at 8,000' AGL
  • Overcast at 9,000' AGL
Temperature Dewpoint
6°C / 43°F 4°C / 39°F
Humidity Altimeter Pressure
87% 29.98" Hg 1015 hPa